Capitol Logistics 993


HTZA
Abeid Amani Karume International Airport
Zanzibar, TZ
FMMI
Ivato International Airport
Antananarivo, MG

Activity Log

Date Flight Route Aircraft Duration
09/04/2020 CPX993 Not Available B763 2h 23m
03/30/2020 CPX993 DV UA401 TN TN1A B763 2h 29m
12/20/2019 CPX993 UVMEX UT913 KINAN UA401 DIRBA KEKIN KEKI1B B763 2h 27m
11/17/2019 CPX993 Not Available B763 2h 35m

Route Details

Aircraft Information
Primary: Boeing 767-300BDSF
Backup: Not Available
Route Data
Distance: 893nm
Sched. Duration: 2h 04m
Avg. Duration: 2h 28m (+24m)
Times Flown: 4
Recm'd Route: Not Available
Planned Altitude: 33,000ft
Origin Wx: HTZA 260600Z 15006KT 9999 BKN018 29/23 Q1014 NOSIG
Dest. Wx: FMMI 260630Z 10007KT 040V190 9999 FEW023 22/11 Q1022 NOSIG
Notes:

Financial History
Total Freight: 312,796lbs
Average Load: 78,199lbs/flt
Fuel Used: 96,142lbs
Avg. Fuel Used: 24,036lbs/flt
Fuel Expense: $65,377
Avg. Fuel Expense: $16,344
Avg. Fuel Cost: $0.68/lbs
Total Gross Income: $3,071,657
Pilot Pay: $806
Total Expenses: $331,947
Total Revenue: $2,672,268
Average Revenue: $767,914.17